createdAt,value
2022-08-05T00:02:33.940Z,99568.59
2022-08-05T00:06:38.173Z,99569.56
2022-08-05T00:10:41.254Z,99569.94
2022-08-05T00:14:44.424Z,99571.34
2022-08-05T00:18:50.891Z,99567.38
2022-08-05T00:22:55.284Z,99553.66
2022-08-05T00:27:10.559Z,99561.19
2022-08-05T00:31:53.064Z,99547.06
2022-08-05T00:35:48.014Z,99543.69
2022-08-05T00:40:06.165Z,99541.22
2022-08-05T00:44:12.984Z,99542.53
2022-08-05T00:48:17.787Z,99547.31
2022-08-05T00:52:32.237Z,99537.84
2022-08-05T00:56:51.621Z,99528.41
2022-08-05T01:00:55.427Z,99528.56
2022-08-05T01:04:58.509Z,99530.31
2022-08-05T01:09:03.555Z,99528.41
2022-08-05T01:13:22.301Z,99517.63
2022-08-05T01:17:40.114Z,99517.81
2022-08-05T01:21:58.295Z,99519.34
2022-08-05T01:26:20.896Z,99520.75
2022-08-05T01:30:35.728Z,99518.34
2022-08-05T01:34:44.934Z,99512.41
2022-08-05T01:38:51.023Z,99515.44
2022-08-05T01:42:55.958Z,99515.69
2022-08-05T01:47:05.231Z,99512.94
2022-08-05T01:51:12.551Z,99505.75
2022-08-05T01:55:19.475Z,99512.06
2022-08-05T01:59:24.784Z,99505.94
2022-08-05T02:03:34.507Z,99504.38
2022-08-05T02:07:38.358Z,99501.16
2022-08-05T02:11:48.197Z,99509.38
2022-08-05T02:16:01.909Z,99507.91
2022-08-05T02:20:23.028Z,99497.59
2022-08-05T02:24:33.775Z,99496.28
2022-08-05T02:28:46.046Z,99497.22
2022-08-05T02:32:52.516Z,99488.53
2022-08-05T02:37:00.793Z,99495.97
2022-08-05T02:41:17.148Z,99492.50
2022-08-05T02:45:24.159Z,99494.22
2022-08-05T02:49:36.424Z,99500.56
2022-08-05T02:54:05.188Z,99481.06
2022-08-05T02:58:20.178Z,99480.16
2022-08-05T03:02:27.789Z,99481.22
2022-08-05T03:06:53.819Z,99473.38
2022-08-05T03:11:53.554Z,99487.06
2022-08-05T03:15:21.201Z,99479.25
2022-08-05T03:19:34.488Z,99479.38
2022-08-05T03:23:42.529Z,99487.41
2022-08-05T03:28:00.128Z,99481.28
2022-08-05T03:32:04.860Z,99476.13
2022-08-05T03:36:12.368Z,99472.75
2022-08-05T03:40:31.330Z,99480.88
2022-08-05T03:44:36.996Z,99479.16
2022-08-05T03:48:41.397Z,99491.06
2022-08-05T03:55:06.890Z,99491.22
2022-08-05T03:57:41.306Z,99490.59
2022-08-05T04:01:50.815Z,99495.19
2022-08-05T04:05:56.108Z,99498.88
2022-08-05T04:10:02.924Z,99489.25
2022-08-05T04:14:07.422Z,99486.94
2022-08-05T04:18:22.415Z,99484.31
2022-08-05T04:22:28.747Z,99487.13
2022-08-05T04:26:32.366Z,99486.28
2022-08-05T04:30:35.796Z,99482.81
2022-08-05T04:34:42.933Z,99485.50
2022-08-05T04:38:46.942Z,99484.50
2022-08-05T04:42:55.268Z,99490.72
2022-08-05T04:46:58.934Z,99488.97
2022-08-05T04:51:11.613Z,99496.88
2022-08-05T04:55:15.457Z,99492.28
2022-08-05T04:59:36.648Z,99488.53
2022-08-05T05:03:42.734Z,99483.88
2022-08-05T05:07:52.951Z,99479.22
2022-08-05T05:12:02.836Z,99481.69
2022-08-05T05:16:07.269Z,99484.97
2022-08-05T05:20:12.521Z,99491.78
2022-08-05T05:24:17.714Z,99482.47
2022-08-05T05:28:21.530Z,99488.09
2022-08-05T05:32:24.831Z,99482.06
2022-08-05T05:36:29.752Z,99492.00
2022-08-05T05:40:35.200Z,99484.94
2022-08-05T05:44:44.424Z,99484.81
2022-08-05T05:48:49.241Z,99482.16
2022-08-05T05:52:52.422Z,99483.09
2022-08-05T05:56:57.062Z,99476.09
2022-08-05T06:01:02.444Z,99484.50
2022-08-05T06:05:20.447Z,99494.63
2022-08-05T06:09:35.385Z,99496.81
2022-08-05T06:13:50.645Z,99491.47
2022-08-05T06:17:57.388Z,99503.69
2022-08-05T06:22:00.485Z,99493.66
2022-08-05T06:26:20.771Z,99498.09
2022-08-05T06:30:27.328Z,99509.84
2022-08-05T06:34:31.360Z,99503.22
2022-08-05T06:38:36.114Z,99506.97
2022-08-05T06:42:40.389Z,99511.94
2022-08-05T06:46:45.224Z,99513.94
2022-08-05T06:50:49.959Z,99511.50
2022-08-05T06:54:53.409Z,99498.66
2022-08-05T06:58:57.132Z,99491.97
2022-08-05T07:03:02.067Z,99494.31
2022-08-05T07:07:07.807Z,99491.06
2022-08-05T07:11:15.394Z,99490.47
2022-08-05T07:16:00.809Z,99488.63
2022-08-05T07:20:33.015Z,99484.00
2022-08-05T07:24:28.533Z,99490.84
2022-08-05T07:28:31.873Z,99498.28
2022-08-05T07:32:36.870Z,99492.69
2022-08-05T07:36:41.377Z,99490.75
2022-08-05T07:40:45.493Z,99484.59
2022-08-05T07:44:58.856Z,99483.97
2022-08-05T07:49:07.944Z,99475.13
2022-08-05T07:53:13.331Z,99487.06
2022-08-05T07:57:41.499Z,99489.78
2022-08-05T08:01:39.513Z,99486.53
2022-08-05T08:05:55.173Z,99475.88
2022-08-05T08:10:01.081Z,99488.63
2022-08-05T08:14:05.080Z,99491.63
2022-08-05T08:18:14.245Z,99491.03
2022-08-05T08:22:17.625Z,99485.16
2022-08-05T08:26:29.728Z,99479.81
2022-08-05T08:30:40.876Z,99491.34
2022-08-05T08:34:51.518Z,99478.38
2022-08-05T08:38:56.026Z,99471.88
2022-08-05T08:44:57.902Z,99477.84
2022-08-05T08:48:06.433Z,99460.69
2022-08-05T08:52:03.487Z,99461.16
2022-08-05T08:56:09.733Z,99464.53
2022-08-05T09:00:16.495Z,99464.09
2022-08-05T09:04:23.255Z,99461.13
2022-08-05T09:08:33.926Z,99461.16
2022-08-05T09:12:37.191Z,99465.78
2022-08-05T09:16:42.064Z,99455.47
2022-08-05T09:20:52.363Z,99456.16
2022-08-05T09:24:59.834Z,99460.31
2022-08-05T09:29:05.991Z,99451.97
2022-08-05T09:33:15.313Z,99454.25
2022-08-05T09:38:17.302Z,99457.94
2022-08-05T09:42:07.872Z,99463.53
2022-08-05T09:46:28.048Z,99462.75
2022-08-05T09:50:45.217Z,99446.06
2022-08-05T09:54:57.173Z,99453.94
2022-08-05T09:59:01.814Z,99454.72
2022-08-05T10:03:11.437Z,99453.97
2022-08-05T10:07:20.009Z,99455.59
2022-08-05T10:11:24.363Z,99442.63
2022-08-05T10:15:36.431Z,99441.06
2022-08-05T10:20:04.400Z,99441.00
2022-08-05T10:24:09.212Z,99435.13
2022-08-05T10:28:19.120Z,99435.78
2022-08-05T10:32:53.684Z,99441.00
2022-08-05T10:36:47.309Z,99442.72
2022-08-05T10:41:02.038Z,99438.63
2022-08-05T10:45:20.843Z,99427.22
2022-08-05T10:49:33.254Z,99424.72
2022-08-05T10:53:45.387Z,99413.13
2022-08-05T10:57:51.366Z,99417.13
2022-08-05T11:02:24.267Z,99416.75
2022-08-05T11:06:33.488Z,99408.84
2022-08-05T11:10:37.664Z,99415.44
2022-08-05T11:15:19.186Z,99414.97
2022-08-05T11:20:16.720Z,99398.72
2022-08-05T11:24:04.857Z,99401.50
2022-08-05T11:28:46.119Z,99403.97
2022-08-05T11:32:51.252Z,99398.16
2022-08-05T11:36:56.165Z,99401.22
2022-08-05T11:41:15.444Z,99402.63
2022-08-05T11:46:14.598Z,99396.81
2022-08-05T11:49:55.913Z,99388.94
2022-08-05T11:54:00.751Z,99394.13
2022-08-05T11:58:10.454Z,99396.19
2022-08-05T12:02:30.701Z,99402.38
2022-08-05T12:06:37.301Z,99393.31
2022-08-05T12:10:52.986Z,99391.59
2022-08-05T12:14:57.044Z,99388.03
2022-08-05T12:19:00.274Z,99386.66
2022-08-05T12:23:13.474Z,99390.09
2022-08-05T12:27:25.091Z,99391.44
2022-08-05T12:31:42.472Z,99391.81
2022-08-05T12:35:49.518Z,99380.97
2022-08-05T12:40:03.678Z,99385.44
2022-08-05T12:44:28.494Z,99387.00
2022-08-05T12:48:39.828Z,99376.38
2022-08-05T12:52:43.288Z,99379.78
2022-08-05T12:56:51.489Z,99370.03
2022-08-05T13:02:01.085Z,99371.22
2022-08-05T13:05:18.154Z,99362.31
2022-08-05T13:09:27.977Z,99362.88
2022-08-05T13:14:04.608Z,99362.00
2022-08-05T13:17:59.289Z,99358.56
2022-08-05T13:22:02.814Z,99353.75
2022-08-05T13:26:07.380Z,99346.03
2022-08-05T13:30:33.987Z,99344.13
2022-08-05T13:34:37.982Z,99336.97
2022-08-05T13:38:43.982Z,99343.47
2022-08-05T13:42:55.683Z,99336.41
2022-08-05T13:47:02.512Z,99322.91
2022-08-05T13:51:13.765Z,99319.13
2022-08-05T13:55:41.762Z,99315.69
2022-08-05T13:59:57.209Z,99308.69
2022-08-05T14:04:22.044Z,99302.31
2022-08-05T14:08:32.609Z,99299.25
2022-08-05T14:12:36.262Z,99301.66
2022-08-05T14:16:39.517Z,99291.53
2022-08-05T14:20:47.892Z,99294.78
2022-08-05T14:24:51.281Z,99280.56
2022-08-05T14:28:54.547Z,99290.69
2022-08-05T14:32:58.959Z,99288.31
2022-08-05T14:37:03.459Z,99284.53
2022-08-05T14:41:08.172Z,99279.41
2022-08-05T14:45:12.344Z,99275.13
2022-08-05T14:49:15.674Z,99268.63
2022-08-05T14:53:20.424Z,99276.31
2022-08-05T14:57:25.002Z,99278.72
2022-08-05T15:01:49.914Z,99272.91
2022-08-05T15:06:13.575Z,99274.97
2022-08-05T15:10:17.773Z,99288.16
2022-08-05T15:14:34.943Z,99286.94
2022-08-05T15:18:47.048Z,99290.34
2022-08-05T15:22:54.104Z,99281.44
2022-08-05T15:26:59.488Z,99290.84
2022-08-05T15:31:03.611Z,99285.03
2022-08-05T15:35:12.471Z,99286.56
2022-08-05T15:40:58.965Z,99278.00
2022-08-05T15:43:46.066Z,99272.34
2022-08-05T15:47:50.184Z,99275.63
2022-08-05T15:52:10.105Z,99281.41
2022-08-05T15:56:17.452Z,99267.88
2022-08-05T16:00:29.283Z,99270.22
2022-08-05T16:04:45.509Z,99280.31
2022-08-05T16:08:51.132Z,99275.84
2022-08-05T16:12:56.636Z,99279.41
2022-08-05T16:17:01.352Z,99281.25
2022-08-05T16:21:04.992Z,99281.06
2022-08-05T16:25:09.968Z,99283.44
2022-08-05T16:29:13.246Z,99281.16
2022-08-05T16:33:19.151Z,99276.88
2022-08-05T16:38:15.303Z,99284.19
2022-08-05T16:42:14.339Z,99288.59
2022-08-05T16:46:23.567Z,99285.50
2022-08-05T16:50:29.573Z,99284.09
2022-08-05T16:54:34.722Z,99279.28
2022-08-05T16:58:39.035Z,99283.69
2022-08-05T17:02:42.754Z,99280.00
2022-08-05T17:06:53.001Z,99272.63
2022-08-05T17:10:57.094Z,99278.72
2022-08-05T17:15:00.178Z,99278.66
2022-08-05T17:19:03.673Z,99261.19
2022-08-05T17:24:03.597Z,99264.59
2022-08-05T17:27:35.736Z,99258.88
2022-08-05T17:31:56.704Z,99275.03
2022-08-05T17:36:08.982Z,99273.63
2022-08-05T17:40:17.222Z,99270.50
2022-08-05T17:44:26.751Z,99268.25
2022-08-05T17:48:35.753Z,99285.81
2022-08-05T17:52:52.787Z,99291.59
2022-08-05T17:56:59.366Z,99298.53
2022-08-05T18:01:02.984Z,99297.25
2022-08-05T18:05:13.716Z,99303.38
2022-08-05T18:09:20.295Z,99301.38
2022-08-05T18:13:25.737Z,99303.88
2022-08-05T18:18:01.504Z,99312.97
2022-08-05T18:22:09.670Z,99316.22
2022-08-05T18:26:14.963Z,99318.84
2022-08-05T18:30:23.527Z,99321.31
2022-08-05T18:34:35.062Z,99321.91
2022-08-05T18:38:44.708Z,99318.78
2022-08-05T18:42:47.824Z,99325.81
2022-08-05T18:46:52.376Z,99327.25
2022-08-05T18:52:05.876Z,99335.34
2022-08-05T18:55:36.229Z,99322.59
2022-08-05T18:59:43.961Z,99333.38
2022-08-05T19:04:05.337Z,99340.41
2022-08-05T19:08:12.244Z,99344.72
2022-08-05T19:12:17.698Z,99349.00
2022-08-05T19:16:25.341Z,99347.88
2022-08-05T19:20:33.793Z,99346.59
2022-08-05T19:24:38.428Z,99353.91
2022-08-05T19:28:57.777Z,99351.91
2022-08-05T19:33:01.063Z,99360.38
2022-08-05T19:37:10.015Z,99356.59
2022-08-05T19:41:13.387Z,99360.91
2022-08-05T19:45:17.429Z,99359.03
2022-08-05T19:49:21.644Z,99361.59
2022-08-05T19:54:04.498Z,99355.00
2022-08-05T19:58:06.673Z,99353.81
2022-08-05T20:02:12.790Z,99353.66
2022-08-05T20:06:29.368Z,99346.28
2022-08-05T20:10:34.224Z,99348.84
2022-08-05T20:14:40.005Z,99353.13
2022-08-05T20:18:43.104Z,99351.06
2022-08-05T20:22:48.312Z,99354.47
2022-08-05T20:26:53.896Z,99349.72
2022-08-05T20:30:58.828Z,99350.41
2022-08-05T20:35:02.420Z,99353.16
2022-08-05T20:39:05.773Z,99354.94
2022-08-05T20:43:10.968Z,99351.31
2022-08-05T20:47:14.887Z,99360.41
2022-08-05T20:51:18.328Z,99344.78
2022-08-05T20:55:56.717Z,99351.19
2022-08-05T21:00:21.339Z,99355.50
2022-08-05T21:04:10.669Z,99363.53
2022-08-05T21:08:13.929Z,99364.97
2022-08-05T21:12:19.420Z,99355.09
2022-08-05T21:16:29.407Z,99370.66
2022-08-05T21:20:34.344Z,99361.91
2022-08-05T21:24:37.444Z,99360.22
2022-08-05T21:28:50.562Z,99361.19
2022-08-05T21:32:55.678Z,99364.28
2022-08-05T21:36:58.811Z,99368.28
2022-08-05T21:41:01.837Z,99372.25
2022-08-05T21:45:10.838Z,99379.00
2022-08-05T21:49:58.883Z,99386.56
2022-08-05T21:53:39.001Z,99389.53
2022-08-05T21:57:42.704Z,99395.50
2022-08-05T22:01:46.037Z,99404.72
2022-08-05T22:05:50.868Z,99408.72
2022-08-05T22:09:54.311Z,99403.94
2022-08-05T22:14:19.778Z,99416.25
2022-08-05T22:18:25.782Z,99427.50
2022-08-05T22:22:31.257Z,99430.59
2022-08-05T22:26:51.917Z,99432.69
2022-08-05T22:30:55.958Z,99431.97
2022-08-05T22:35:00.500Z,99452.22
2022-08-05T22:39:09.587Z,99447.00
2022-08-05T22:43:13.388Z,99442.91
2022-08-05T22:47:29.812Z,99447.72
2022-08-05T22:52:06.360Z,99445.63
2022-08-05T22:55:59.350Z,99454.13
2022-08-05T23:00:03.034Z,99460.69
2022-08-05T23:04:06.455Z,99459.06
2022-08-05T23:08:12.364Z,99467.47
2022-08-05T23:12:20.344Z,99473.97
2022-08-05T23:16:44.039Z,99463.38
2022-08-05T23:20:47.245Z,99474.47
2022-08-05T23:24:52.497Z,99472.13
2022-08-05T23:28:57.200Z,99467.56
2022-08-05T23:33:01.982Z,99457.84
2022-08-05T23:37:07.027Z,99453.25
2022-08-05T23:41:14.505Z,99444.41
2022-08-05T23:45:18.913Z,99436.50
2022-08-05T23:49:33.763Z,99443.91
2022-08-05T23:53:46.698Z,99439.69
2022-08-05T23:57:51.194Z,99435.25
